Time;durP1;ratioP1;P1;durP2;ratioP2;P2;SDS_P1;SDS_P2;PMS_P1;PMS_P2;Temp;Humidity;BMP_temperature;BMP_pressure;BME280_temperature;BME280_humidity;BME280_pressure;Samples;Min_cycle;Max_cycle;Signal;HPM_P1;HPM_P2
2022/08/14 00:01:59;;;;;;;;;12.50;12.50;;;;;;;;5171631;28;8883;-77
2022/08/14 00:04:31;;;;;;;;;13.75;13.75;;;;;;;;5187097;28;8777;-77
2022/08/14 00:07:21;;;;;;;;;17.25;17.25;;;;;;;;5204918;28;8782;-77
2022/08/14 00:09:53;;;;;;;;;14.67;14.67;;;;;;;;5189458;28;9612;-76
2022/08/14 00:12:25;;;;;;;;;12.50;12.50;;;;;;;;5189594;28;9626;-77
2022/08/14 00:15:35;;;;;;;;;17.25;17.25;;;;;;;;5229800;28;8809;-76
2022/08/14 00:18:08;;;;;;;;;13.50;13.50;;;;;;;;5210793;28;8843;-77
2022/08/14 00:20:40;;;;;;;;;15.00;15.00;;;;;;;;5211296;28;8779;-77
2022/08/14 00:23:12;;;;;;;;;17.00;17.00;;;;;;;;5228980;28;8775;-76
2022/08/14 00:25:45;;;;;;;;;15.00;15.00;;;;;;;;5195118;28;8771;-76
2022/08/14 00:28:16;;;;;;;;;16.50;16.50;;;;;;;;5178168;28;8817;-76
2022/08/14 00:30:47;;;;;;;;;15.50;15.50;;;;;;;;5200985;28;9563;-75
2022/08/14 00:33:18;;;;;;;;;14.00;14.00;;;;;;;;5210969;28;8779;-75
2022/08/14 00:35:49;;;;;;;;;16.25;16.25;;;;;;;;5229003;28;8779;-75
2022/08/14 00:38:21;;;;;;;;;18.75;18.75;;;;;;;;5210845;28;8813;-74
2022/08/14 00:41:10;;;;;;;;;19.60;19.60;;;;;;;;5227142;28;9546;-75
2022/08/14 00:43:44;;;;;;;;;19.75;19.50;;;;;;;;5194325;28;8976;-75
2022/08/14 00:46:33;;;;;;;;;20.80;20.80;;;;;;;;5224627;28;8801;-74
2022/08/14 00:49:04;;;;;;;;;22.75;22.50;;;;;;;;5223072;28;8844;-75
2022/08/14 00:51:36;;;;;;;;;19.00;19.00;;;;;;;;5190145;28;8843;-74
2022/08/14 00:54:25;;;;;;;;;19.40;19.40;;;;;;;;5189995;28;8773;-74
2022/08/14 00:56:56;;;;;;;;;18.00;18.00;;;;;;;;5190081;28;8833;-75
2022/08/14 00:59:27;;;;;;;;;17.75;17.75;;;;;;;;5173747;28;8820;-74
2022/08/14 01:01:59;;;;;;;;;20.20;20.20;;;;;;;;5207986;28;9534;-74
2022/08/14 01:04:32;;;;;;;;;19.25;19.25;;;;;;;;5210483;28;8775;-74
2022/08/14 01:07:03;;;;;;;;;19.50;19.50;;;;;;;;5192993;28;8795;-74
2022/08/14 01:09:35;;;;;;;;;20.25;19.50;;;;;;;;5220547;28;9589;-74
2022/08/14 01:12:26;;;;;;;;;20.67;20.00;;;;;;;;5192636;28;8799;-75
2022/08/14 01:14:58;;;;;;;;;17.00;17.00;;;;;;;;5189731;28;8882;-80
2022/08/14 01:23:11;;;;;;;;;14.50;14.25;;;;;;;;5165382;28;8812;-76
2022/08/14 01:25:43;;;;;;;;;12.75;12.25;;;;;;;;5166298;28;8892;-76
2022/08/14 01:28:14;;;;;;;;;17.00;17.00;;;;;;;;5169131;28;8795;-76
2022/08/14 01:30:46;;;;;;;;;16.25;16.25;;;;;;;;5149503;28;8809;-77
2022/08/14 01:33:17;;;;;;;;;16.25;14.75;;;;;;;;5165188;28;8832;-77
2022/08/14 01:35:48;;;;;;;;;17.00;16.75;;;;;;;;5165030;28;8793;-77
2022/08/14 01:38:19;;;;;;;;;13.00;13.00;;;;;;;;5149557;28;8830;-79
2022/08/14 01:40:50;;;;;;;;;18.00;17.50;;;;;;;;5166254;28;8798;-77
2022/08/14 01:43:22;;;;;;;;;16.25;16.25;;;;;;;;5148677;28;8786;-77
2022/08/14 01:45:53;;;;;;;;;16.50;16.50;;;;;;;;5165970;28;8800;-77
2022/08/14 01:48:24;;;;;;;;;13.50;13.50;;;;;;;;5151665;28;8799;-80
2022/08/14 01:50:56;;;;;;;;;15.25;15.25;;;;;;;;5168727;28;8787;-77
2022/08/14 01:53:28;;;;;;;;;15.50;15.00;;;;;;;;5185352;28;8798;-78
2022/08/14 01:56:02;;;;;;;;;14.50;14.00;;;;;;;;5152330;28;8807;-76
2022/08/14 01:58:33;;;;;;;;;16.75;16.75;;;;;;;;5168547;28;8877;-75
2022/08/14 02:01:05;;;;;;;;;14.25;14.25;;;;;;;;5167149;28;8898;-75
2022/08/14 02:03:39;;;;;;;;;14.50;14.50;;;;;;;;5189113;28;8788;-75
2022/08/14 02:06:11;;;;;;;;;10.00;10.00;;;;;;;;5186697;28;8791;-76
2022/08/14 02:08:42;;;;;;;;;10.50;10.50;;;;;;;;5184839;28;8821;-75
2022/08/14 02:11:17;;;;;;;;;13.25;13.25;;;;;;;;5186000;28;8783;-76
2022/08/14 02:14:09;;;;;;;;;12.00;12.00;;;;;;;;5173689;28;9490;-76
2022/08/14 02:16:41;;;;;;;;;12.50;12.50;;;;;;;;5171099;28;8801;-75
2022/08/14 02:19:16;;;;;;;;;12.25;12.25;;;;;;;;5172539;28;8832;-77
2022/08/14 02:21:49;;;;;;;;;13.00;13.00;;;;;;;;5179260;28;8803;-77
2022/08/14 02:24:22;;;;;;;;;11.50;11.25;;;;;;;;5176671;28;8838;-78
2022/08/14 02:26:53;;;;;;;;;10.75;10.75;;;;;;;;5193065;28;8782;-78
2022/08/14 02:29:26;;;;;;;;;16.50;16.50;;;;;;;;5194241;28;8787;-78
2022/08/14 02:32:16;;;;;;;;;14.50;14.25;;;;;;;;5219366;28;8813;-77
2022/08/14 02:34:48;;;;;;;;;18.75;18.75;;;;;;;;5231451;28;8825;-78
2022/08/14 02:37:19;;;;;;;;;19.25;19.00;;;;;;;;5181455;28;8801;-78
2022/08/14 02:39:50;;;;;;;;;14.00;14.00;;;;;;;;5188862;28;8837;-78
2022/08/14 02:42:23;;;;;;;;;17.00;17.00;;;;;;;;5171723;28;8905;-78
2022/08/14 02:44:54;;;;;;;;;16.00;16.00;;;;;;;;5189141;28;8777;-75
2022/08/14 02:47:43;;;;;;;;;19.50;19.50;;;;;;;;5207651;28;9554;-76
2022/08/14 02:50:16;;;;;;;;;18.00;18.00;;;;;;;;5226128;28;8774;-75
2022/08/14 02:53:05;;;;;;;;;18.00;18.00;;;;;;;;5194400;28;8807;-76
2022/08/14 02:55:38;;;;;;;;;19.50;19.50;;;;;;;;5191835;28;8884;-75
2022/08/14 02:58:10;;;;;;;;;18.00;18.00;;;;;;;;5208283;28;8823;-77
2022/08/14 03:00:42;;;;;;;;;23.25;23.00;;;;;;;;5204753;28;8830;-78
2022/08/14 03:03:13;;;;;;;;;23.75;23.50;;;;;;;;5191609;28;9673;-78
2022/08/14 03:05:44;;;;;;;;;21.75;21.75;;;;;;;;5224906;28;8830;-78
2022/08/14 03:08:16;;;;;;;;;26.80;26.80;;;;;;;;5208509;28;8767;-78
2022/08/14 03:10:48;;;;;;;;;25.50;25.50;;;;;;;;5191741;28;9502;-79
2022/08/14 03:13:19;;;;;;;;;21.50;21.25;;;;;;;;5208037;28;8836;-77
2022/08/14 03:15:52;;;;;;;;;27.00;26.75;;;;;;;;5208151;28;8768;-78
2022/08/14 03:18:25;;;;;;;;;27.00;26.50;;;;;;;;5225303;28;8941;-78
2022/08/14 03:20:56;;;;;;;;;25.00;25.00;;;;;;;;5191480;28;8767;-78
2022/08/14 03:23:33;;;;;;;;;26.75;26.50;;;;;;;;5191662;28;8929;-76
2022/08/14 03:26:09;;;;;;;;;20.50;20.50;;;;;;;;5191619;28;8779;-78
2022/08/14 03:28:41;;;;;;;;;26.25;25.00;;;;;;;;5191672;28;8879;-74
2022/08/14 03:31:13;;;;;;;;;20.00;19.25;;;;;;;;5191678;28;9534;-76
2022/08/14 03:33:44;;;;;;;;;25.00;24.00;;;;;;;;5190088;28;8801;-75
2022/08/14 03:36:18;;;;;;;;;21.50;21.25;;;;;;;;5207123;28;8809;-77
2022/08/14 03:39:10;;;;;;;;;25.00;24.50;;;;;;;;5183224;28;8813;-77
2022/08/14 03:41:41;;;;;;;;;22.00;21.25;;;;;;;;5171435;28;8796;-75
2022/08/14 03:44:12;;;;;;;;;20.00;20.00;;;;;;;;5170994;28;8927;-76
2022/08/14 03:46:43;;;;;;;;;19.25;18.50;;;;;;;;5205635;28;8899;-74
2022/08/14 03:49:19;;;;;;;;;19.75;19.75;;;;;;;;5209045;28;8915;-75
2022/08/14 03:51:50;;;;;;;;;18.50;18.50;;;;;;;;5209382;28;8801;-75
2022/08/14 03:54:23;;;;;;;;;18.25;17.25;;;;;;;;5214602;28;8790;-74
2022/08/14 03:56:59;;;;;;;;;17.25;17.25;;;;;;;;5211545;28;8864;-73
2022/08/14 03:59:48;;;;;;;;;11.75;11.25;;;;;;;;5196136;28;8821;-73
2022/08/14 04:02:21;;;;;;;;;17.25;16.75;;;;;;;;5209016;28;8797;-73
2022/08/14 04:04:52;;;;;;;;;12.50;12.50;;;;;;;;5191279;28;8781;-74
2022/08/14 04:07:24;;;;;;;;;11.25;11.25;;;;;;;;5192983;28;8791;-82
2022/08/14 04:09:55;;;;;;;;;9.75;9.75;;;;;;;;5171784;28;8794;-81
2022/08/14 04:12:27;;;;;;;;;7.50;7.50;;;;;;;;5176398;28;8797;-90
2022/08/14 04:14:58;;;;;;;;;4.75;4.75;;;;;;;;5192039;28;9618;-78
2022/08/14 04:17:32;;;;;;;;;7.25;7.25;;;;;;;;5196892;28;9578;-82
2022/08/14 04:20:06;;;;;;;;;8.00;8.00;;;;;;;;5220291;28;8794;-83
2022/08/14 04:22:37;;;;;;;;;8.25;8.25;;;;;;;;5205946;28;8811;-85
2022/08/14 04:25:09;;;;;;;;;9.00;9.00;;;;;;;;5222160;28;8882;-79
2022/08/14 04:27:41;;;;;;;;;8.00;8.00;;;;;;;;5218401;28;8783;-78
2022/08/14 04:30:14;;;;;;;;;7.50;7.50;;;;;;;;5187862;28;8783;-82
2022/08/14 04:32:45;;;;;;;;;8.50;8.50;;;;;;;;5213662;28;8783;-80
2022/08/14 04:35:17;;;;;;;;;4.25;4.25;;;;;;;;5178320;28;8832;-81
2022/08/14 04:43:39;;;;;;;;;8.25;8.25;;;;;;;;5192520;28;8919;-82
2022/08/14 04:46:14;;;;;;;;;6.50;6.50;;;;;;;;5178135;28;9520;-85
2022/08/14 04:48:46;;;;;;;;;7.75;7.75;;;;;;;;5191011;28;8889;-83
2022/08/14 04:51:19;;;;;;;;;7.00;7.00;;;;;;;;5157722;28;9507;-81
2022/08/14 04:53:50;;;;;;;;;8.00;8.00;;;;;;;;5203798;28;8804;-84
2022/08/14 04:56:23;;;;;;;;;8.50;8.50;;;;;;;;5171200;28;8825;-85
2022/08/14 04:59:03;;;;;;;;;9.25;9.00;;;;;;;;5190030;28;8834;-85
2022/08/14 05:01:35;;;;;;;;;13.00;13.00;;;;;;;;5172314;28;8825;-82
2022/08/14 05:04:07;;;;;;;;;9.25;9.25;;;;;;;;5222015;28;8830;-84
2022/08/14 05:06:38;;;;;;;;;7.75;7.75;;;;;;;;5182765;28;9504;-82
2022/08/14 05:09:10;;;;;;;;;9.50;9.50;;;;;;;;5171883;28;8800;-83
2022/08/14 05:11:41;;;;;;;;;9.25;9.25;;;;;;;;5182241;28;8803;-84
2022/08/14 05:14:32;;;;;;;;;9.75;9.75;;;;;;;;5194288;28;8795;-84
2022/08/14 05:17:25;;;;;;;;;5.25;5.25;;;;;;;;5190988;28;8906;-73
2022/08/14 05:19:57;;;;;;;;;9.00;9.00;;;;;;;;5155574;28;8825;-70
2022/08/14 05:22:28;;;;;;;;;6.25;6.25;;;;;;;;5188117;28;8801;-75
2022/08/14 05:25:02;;;;;;;;;7.75;7.75;;;;;;;;5186074;28;8926;-75
2022/08/14 05:27:35;;;;;;;;;9.25;9.25;;;;;;;;5179777;28;9002;-72
2022/08/14 05:30:06;;;;;;;;;7.00;7.00;;;;;;;;5190575;28;8817;-76
2022/08/14 05:32:38;;;;;;;;;9.25;9.25;;;;;;;;5173417;28;8793;-75
2022/08/14 05:35:27;;;;;;;;;8.50;8.50;;;;;;;;5224020;28;8811;-75
2022/08/14 05:37:59;;;;;;;;;8.33;8.33;;;;;;;;5202781;28;8873;-74
2022/08/14 05:40:48;;;;;;;;;9.25;9.25;;;;;;;;5203601;28;11457;-75
2022/08/14 05:43:20;;;;;;;;;8.00;8.00;;;;;;;;5227642;28;9477;-76
2022/08/14 05:45:51;;;;;;;;;22.00;21.00;;;;;;;;5209567;28;8803;-75
2022/08/14 05:48:41;;;;;;;;;11.00;11.00;;;;;;;;5227480;28;8763;-73
2022/08/14 05:51:12;;;;;;;;;7.25;7.25;;;;;;;;5193049;28;9489;-73
2022/08/14 05:53:43;;;;;;;;;5.75;5.75;;;;;;;;5226815;28;8791;-74
2022/08/14 05:56:14;;;;;;;;;6.25;6.25;;;;;;;;5188605;28;8804;-74
2022/08/14 05:58:45;;;;;;;;;8.00;8.00;;;;;;;;5205395;28;8801;-73
2022/08/14 06:01:17;;;;;;;;;3.25;3.25;;;;;;;;5185067;28;9504;-74
2022/08/14 06:04:06;;;;;;;;;6.50;6.50;;;;;;;;5225010;28;8791;-76
2022/08/14 06:06:37;;;;;;;;;8.67;8.67;;;;;;;;5243302;28;8817;-75
2022/08/14 06:09:10;;;;;;;;;6.75;6.75;;;;;;;;5227147;28;12222;-75
2022/08/14 06:11:41;;;;;;;;;6.00;6.00;;;;;;;;5225788;28;8844;-74
2022/08/14 06:14:12;;;;;;;;;7.25;7.25;;;;;;;;5226865;28;8775;-75
2022/08/14 06:16:46;;;;;;;;;11.25;11.25;;;;;;;;5209374;28;8778;-75
2022/08/14 06:19:17;;;;;;;;;9.50;9.50;;;;;;;;5208861;28;8858;-75
2022/08/14 06:21:48;;;;;;;;;8.33;8.33;;;;;;;;5227060;28;9680;-75
2022/08/14 06:24:20;;;;;;;;;9.50;9.50;;;;;;;;5209179;28;10598;-75
2022/08/14 06:26:51;;;;;;;;;13.00;13.00;;;;;;;;5192360;28;8803;-74
2022/08/14 06:29:22;;;;;;;;;10.75;10.75;;;;;;;;5226610;28;8818;-75
2022/08/14 06:31:53;;;;;;;;;10.25;10.25;;;;;;;;5192309;28;8814;-74
2022/08/14 06:34:27;;;;;;;;;11.25;11.25;;;;;;;;5175980;28;8791;-74
2022/08/14 06:36:58;;;;;;;;;10.25;10.00;;;;;;;;5192081;28;8818;-73
2022/08/14 06:39:32;;;;;;;;;10.75;10.75;;;;;;;;5226589;28;8807;-75
2022/08/14 06:42:07;;;;;;;;;12.00;12.00;;;;;;;;5209170;28;8810;-74
2022/08/14 06:44:39;;;;;;;;;12.25;12.25;;;;;;;;5208547;28;8790;-74
2022/08/14 06:47:13;;;;;;;;;11.00;11.00;;;;;;;;5176285;28;8887;-74
2022/08/14 06:49:44;;;;;;;;;11.75;11.75;;;;;;;;5192506;28;8921;-74
2022/08/14 06:52:15;;;;;;;;;12.50;12.50;;;;;;;;5226196;28;8783;-74
2022/08/14 06:54:58;;;;;;;;;13.25;13.25;;;;;;;;5209718;28;8779;-76
2022/08/14 06:57:37;;;;;;;;;12.25;12.25;;;;;;;;5192200;28;8852;-73
2022/08/14 07:00:10;;;;;;;;;10.25;10.25;;;;;;;;5192231;28;8826;-73
2022/08/14 07:05:44;;;;;;;;;11.25;11.25;;;;;;;;5227225;28;8783;-74
2022/08/14 07:08:17;;;;;;;;;10.25;10.25;;;;;;;;5175749;28;8782;-74
2022/08/14 07:10:50;;;;;;;;;8.00;8.00;;;;;;;;5208368;28;8787;-74
2022/08/14 07:13:40;;;;;;;;;9.00;9.00;;;;;;;;5211086;28;9484;-74
2022/08/14 07:16:11;;;;;;;;;8.00;7.75;;;;;;;;5175176;28;8779;-74
2022/08/14 07:18:44;;;;;;;;;6.50;6.50;;;;;;;;5187244;28;8848;-74
2022/08/14 07:21:15;;;;;;;;;9.25;8.50;;;;;;;;5205299;28;8788;-74
2022/08/14 07:23:47;;;;;;;;;4.75;4.75;;;;;;;;5187733;28;9625;-74
2022/08/14 07:26:18;;;;;;;;;4.50;4.00;;;;;;;;5171244;28;8788;-74
2022/08/14 07:29:10;;;;;;;;;3.00;3.00;;;;;;;;5204123;28;8894;-74
2022/08/14 07:31:41;;;;;;;;;3.00;3.00;;;;;;;;5203989;28;8801;-74
2022/08/14 07:34:12;;;;;;;;;2.00;2.00;;;;;;;;5204083;28;9503;-74
2022/08/14 07:36:43;;;;;;;;;0.75;0.75;;;;;;;;5205495;28;8903;-74
2022/08/14 07:39:14;;;;;;;;;1.00;1.00;;;;;;;;5204177;28;8839;-74
2022/08/14 07:41:48;;;;;;;;;2.50;2.50;;;;;;;;5205093;28;11418;-74
2022/08/14 07:44:19;;;;;;;;;2.50;2.50;;;;;;;;5204971;28;8855;-75
2022/08/14 07:46:50;;;;;;;;;3.25;3.25;;;;;;;;5204906;28;8926;-74
2022/08/14 07:49:22;;;;;;;;;2.00;2.00;;;;;;;;5205248;28;8800;-75
2022/08/14 07:51:53;;;;;;;;;2.75;2.75;;;;;;;;5171005;28;9487;-76
2022/08/14 07:54:42;;;;;;;;;3.00;3.00;;;;;;;;5203760;28;8765;-76
2022/08/14 07:57:13;;;;;;;;;2.25;2.25;;;;;;;;5203794;28;8788;-75
2022/08/14 07:59:45;;;;;;;;;3.00;3.00;;;;;;;;5205459;28;8846;-75
2022/08/14 08:02:43;;;;;;;;;1.25;1.25;;;;;;;;5190370;28;8800;-77
2022/08/14 08:05:18;;;;;;;;;6.00;6.00;;;;;;;;5204247;28;9617;-77
2022/08/14 08:07:52;;;;;;;;;6.00;6.00;;;;;;;;5187766;28;8809;-76
2022/08/14 08:10:31;;;;;;;;;5.00;5.00;;;;;;;;5204597;28;8800;-76
2022/08/14 08:13:13;;;;;;;;;3.00;3.00;;;;;;;;5203506;28;8800;-75
2022/08/14 08:15:48;;;;;;;;;2.00;2.00;;;;;;;;5187254;28;8796;-77
2022/08/14 08:18:20;;;;;;;;;5.00;5.00;;;;;;;;5217763;28;8847;-75
2022/08/14 08:21:10;;;;;;;;;5.00;5.00;;;;;;;;5210483;28;9544;-75
2022/08/14 08:23:41;;;;;;;;;3.00;3.00;;;;;;;;5225240;28;8775;-75
2022/08/14 08:26:13;;;;;;;;;5.00;5.00;;;;;;;;5207076;28;8791;-77
2022/08/14 08:28:53;;;;;;;;;4.75;4.75;;;;;;;;5225691;28;8787;-76
2022/08/14 08:31:25;;;;;;;;;4.25;4.25;;;;;;;;5191165;28;8759;-76
2022/08/14 08:33:56;;;;;;;;;5.00;5.00;;;;;;;;5208488;28;8802;-76
2022/08/14 08:36:27;;;;;;;;;2.00;2.00;;;;;;;;5212137;28;8806;-75
2022/08/14 08:38:59;;;;;;;;;2.50;2.50;;;;;;;;5210743;28;8861;-77
2022/08/14 08:41:42;;;;;;;;;2.25;2.25;;;;;;;;5178809;28;8795;-76
2022/08/14 08:44:13;;;;;;;;;3.00;3.00;;;;;;;;5211559;28;8885;-77
2022/08/14 08:46:45;;;;;;;;;5.50;5.50;;;;;;;;5228526;28;8913;-75
2022/08/14 08:49:17;;;;;;;;;5.00;5.00;;;;;;;;5210793;28;9509;-76
2022/08/14 08:51:49;;;;;;;;;2.25;2.25;;;;;;;;5211043;28;9029;-76
2022/08/14 08:54:21;;;;;;;;;2.75;2.75;;;;;;;;5194616;28;8799;-76
2022/08/14 08:56:52;;;;;;;;;3.50;3.50;;;;;;;;5228419;28;8787;-75
2022/08/14 08:59:27;;;;;;;;;2.00;2.00;;;;;;;;5213416;28;8815;-77
2022/08/14 09:02:17;;;;;;;;;3.00;3.00;;;;;;;;5217744;28;8894;-77
2022/08/14 09:04:48;;;;;;;;;2.00;2.00;;;;;;;;5214740;28;8807;-77
2022/08/14 09:07:25;;;;;;;;;4.00;4.00;;;;;;;;5232354;28;8787;-76
2022/08/14 09:09:57;;;;;;;;;3.25;3.25;;;;;;;;5210792;28;9505;-75
2022/08/14 09:12:28;;;;;;;;;2.50;2.50;;;;;;;;5194088;28;8806;-76
2022/08/14 09:15:08;;;;;;;;;5.75;5.75;;;;;;;;5210272;28;8802;-75
2022/08/14 09:17:40;;;;;;;;;3.75;3.75;;;;;;;;5210475;28;8957;-77
2022/08/14 09:20:12;;;;;;;;;9.00;9.00;;;;;;;;5194002;28;8819;-75
2022/08/14 09:22:44;;;;;;;;;2.25;2.25;;;;;;;;5228544;28;8821;-75
2022/08/14 09:25:16;;;;;;;;;2.75;2.75;;;;;;;;5193846;28;8799;-76
2022/08/14 09:28:07;;;;;;;;;1.50;1.50;;;;;;;;5228593;28;8779;-75
2022/08/14 09:30:57;;;;;;;;;1.50;1.50;;;;;;;;5228462;28;8763;-74
2022/08/14 09:33:35;;;;;;;;;9.25;9.25;;;;;;;;5222421;28;8795;-75
2022/08/14 09:36:39;;;;;;;;;1.00;1.00;;;;;;;;5220694;28;8786;-74
2022/08/14 09:39:28;;;;;;;;;4.50;4.50;;;;;;;;5228566;28;8810;-74
2022/08/14 09:42:23;;;;;;;;;2.00;2.00;;;;;;;;5210437;28;8787;-74
2022/08/14 09:45:11;;;;;;;;;2.00;2.00;;;;;;;;5199552;28;8805;-74
2022/08/14 09:47:42;;;;;;;;;16.25;16.25;;;;;;;;5193007;28;8800;-74
2022/08/14 09:50:22;;;;;;;;;7.00;7.00;;;;;;;;5209789;28;8808;-74
2022/08/14 09:52:58;;;;;;;;;2.75;2.75;;;;;;;;5227527;28;8771;-76
2022/08/14 09:55:34;;;;;;;;;6.25;6.25;;;;;;;;5210064;28;8787;-75
2022/08/14 09:58:35;;;;;;;;;3.00;3.00;;;;;;;;5227670;28;9730;-76
2022/08/14 10:01:34;;;;;;;;;5.25;5.25;;;;;;;;5227241;28;8787;-76
2022/08/14 10:04:15;;;;;;;;;7.50;7.50;;;;;;;;5227904;28;8771;-76
2022/08/14 10:06:46;;;;;;;;;3.00;3.00;;;;;;;;5176960;28;8787;-76
2022/08/14 10:09:47;;;;;;;;;1.50;1.50;;;;;;;;5212358;28;9059;-76
2022/08/14 10:12:49;;;;;;;;;2.75;2.75;;;;;;;;5209396;28;8795;-76
2022/08/14 10:15:21;;;;;;;;;1.50;1.50;;;;;;;;5227562;28;9392;-78
2022/08/14 10:18:08;;;;;;;;;2.00;2.00;;;;;;;;5209216;28;8847;-77
2022/08/14 10:21:03;;;;;;;;;2.00;2.00;;;;;;;;5226805;28;8938;-77
2022/08/14 10:23:39;;;;;;;;;3.75;3.75;;;;;;;;5193139;28;8790;-77
2022/08/14 10:26:10;;;;;;;;;3.50;3.50;;;;;;;;5209315;28;9621;-77
2022/08/14 10:29:08;;;;;;;;;3.00;3.00;;;;;;;;5226938;28;8808;-77
2022/08/14 10:31:39;;;;;;;;;1.50;1.50;;;;;;;;5227267;28;8850;-77
2022/08/14 10:34:11;;;;;;;;;4.50;4.50;;;;;;;;5209099;28;9486;-77
2022/08/14 10:36:43;;;;;;;;;2.50;2.50;;;;;;;;5192332;28;8984;-77
2022/08/14 10:39:19;;;;;;;;;2.00;2.00;;;;;;;;5226571;28;8868;-77
2022/08/14 10:41:59;;;;;;;;;2.00;2.00;;;;;;;;5175936;28;8829;-77
2022/08/14 10:44:49;;;;;;;;;2.00;2.00;;;;;;;;5226684;28;8802;-76
2022/08/14 10:47:23;;;;;;;;;42.50;37.50;;;;;;;;5208869;28;8759;-75
2022/08/14 10:49:59;;;;;;;;;3.75;3.75;;;;;;;;5226602;28;8787;-77
2022/08/14 10:52:55;;;;;;;;;0.50;0.50;;;;;;;;5226932;28;8783;-75
2022/08/14 10:55:38;;;;;;;;;5.75;5.75;;;;;;;;5226466;28;8790;-76
2022/08/14 10:58:25;;;;;;;;;3.50;3.50;;;;;;;;5208234;28;9619;-76
2022/08/14 11:00:57;;;;;;;;;3.00;3.00;;;;;;;;5226061;28;8783;-76
2022/08/14 11:03:42;;;;;;;;;4.75;4.75;;;;;;;;5193182;28;8798;-76
2022/08/14 11:06:23;;;;;;;;;2.00;2.00;;;;;;;;5226683;28;8905;-76
2022/08/14 11:09:14;;;;;;;;;2.00;2.00;;;;;;;;5208507;28;8779;-77
2022/08/14 11:11:48;;;;;;;;;1.00;1.00;;;;;;;;5192130;28;8783;-77
2022/08/14 11:14:25;;;;;;;;;1.00;1.00;;;;;;;;5193248;28;9490;-77
2022/08/14 11:16:59;;;;;;;;;1.00;1.00;;;;;;;;5225869;28;8867;-78
2022/08/14 11:19:50;;;;;;;;;1.00;1.00;;;;;;;;5226340;28;8835;-77
2022/08/14 11:22:21;;;;;;;;;1.00;1.00;;;;;;;;5209777;28;8799;-76
2022/08/14 11:24:55;;;;;;;;;0.25;0.25;;;;;;;;5215951;28;8826;-76
2022/08/14 11:27:26;;;;;;;;;1.50;1.50;;;;;;;;5217255;28;8798;-76
2022/08/14 11:30:18;;;;;;;;;1.00;1.00;;;;;;;;5235489;28;8786;-75
2022/08/14 11:33:08;;;;;;;;;2.00;2.00;;;;;;;;5226221;28;8786;-77
2022/08/14 11:36:00;;;;;;;;;0.00;0.00;;;;;;;;5225704;28;8755;-77
2022/08/14 11:38:42;;;;;;;;;1.00;1.00;;;;;;;;5208013;28;8829;-76
2022/08/14 11:41:17;;;;;;;;;0.25;0.25;;;;;;;;5208183;28;8779;-77
2022/08/14 11:43:49;;;;;;;;;0.00;0.00;;;;;;;;5207567;28;8783;-76
2022/08/14 11:46:22;;;;;;;;;1.00;1.00;;;;;;;;5191345;28;8849;-77
2022/08/14 11:48:53;;;;;;;;;1.75;1.75;;;;;;;;5207847;28;9533;-76
2022/08/14 11:51:27;;;;;;;;;0.00;0.00;;;;;;;;5225697;28;8853;-77
2022/08/14 11:54:03;;;;;;;;;2.00;1.75;;;;;;;;5191484;28;8810;-76
2022/08/14 11:56:52;;;;;;;;;1.00;1.00;;;;;;;;5225507;28;8811;-76
2022/08/14 11:59:23;;;;;;;;;0.25;0.25;;;;;;;;5207718;28;8834;-76
2022/08/14 12:01:55;;;;;;;;;2.50;2.50;;;;;;;;5225619;28;8767;-75
2022/08/14 12:04:26;;;;;;;;;1.00;1.00;;;;;;;;5225411;28;8798;-75
2022/08/14 12:07:16;;;;;;;;;2.50;2.50;;;;;;;;5225163;28;9501;-75
2022/08/14 12:09:50;;;;;;;;;2.00;1.00;;;;;;;;5227800;28;8856;-75
2022/08/14 12:12:40;;;;;;;;;4.00;4.00;;;;;;;;5229592;28;8775;-76
2022/08/14 12:15:11;;;;;;;;;2.75;2.75;;;;;;;;5229410;28;8763;-75
2022/08/14 12:18:01;;;;;;;;;8.00;8.00;;;;;;;;5229448;28;8819;-75
2022/08/14 12:20:36;;;;;;;;;2.50;2.50;;;;;;;;5211773;28;8798;-75
2022/08/14 12:23:18;;;;;;;;;2.00;2.00;;;;;;;;5211653;28;8798;-75
2022/08/14 12:26:00;;;;;;;;;3.25;3.25;;;;;;;;5229124;28;8863;-75
2022/08/14 12:28:31;;;;;;;;;1.00;1.00;;;;;;;;5220276;28;8802;-73
2022/08/14 12:31:16;;;;;;;;;4.33;4.33;;;;;;;;5220793;28;8878;-73
2022/08/14 12:34:07;;;;;;;;;1.00;1.00;;;;;;;;5185615;28;8921;-74
2022/08/14 12:36:38;;;;;;;;;1.75;1.75;;;;;;;;5208458;28;8785;-73
2022/08/14 12:39:18;;;;;;;;;1.00;1.00;;;;;;;;5208117;28;8837;-73
2022/08/14 12:41:51;;;;;;;;;3.00;3.00;;;;;;;;5215991;28;9498;-76
2022/08/14 12:44:29;;;;;;;;;6.25;6.25;;;;;;;;5174714;28;9609;-75
2022/08/14 12:47:19;;;;;;;;;3.50;3.50;;;;;;;;5195700;28;8791;-74
2022/08/14 12:49:52;;;;;;;;;7.50;7.50;;;;;;;;5211343;28;8783;-74
2022/08/14 12:52:28;;;;;;;;;4.25;4.25;;;;;;;;5194153;28;8807;-74
2022/08/14 12:55:00;;;;;;;;;5.00;5.00;;;;;;;;5228462;28;9550;-73
2022/08/14 12:57:51;;;;;;;;;1.00;1.00;;;;;;;;5236468;28;8925;-73
2022/08/14 13:00:23;;;;;;;;;3.00;3.00;;;;;;;;5225404;28;8826;-76
2022/08/14 13:02:55;;;;;;;;;3.00;3.00;;;;;;;;5218965;28;8789;-73
2022/08/14 13:05:28;;;;;;;;;5.25;5.25;;;;;;;;5207393;28;8915;-75
2022/08/14 13:08:02;;;;;;;;;3.50;3.50;;;;;;;;5190329;28;8813;-73
2022/08/14 13:10:33;;;;;;;;;4.00;4.00;;;;;;;;5190081;28;8793;-73
2022/08/14 13:13:08;;;;;;;;;2.50;2.50;;;;;;;;5217600;28;8810;-74
2022/08/14 13:15:39;;;;;;;;;5.00;5.00;;;;;;;;5202453;28;8832;-78
2022/08/14 13:18:11;;;;;;;;;3.75;3.75;;;;;;;;5187561;28;8871;-74
2022/08/14 13:20:42;;;;;;;;;2.00;2.00;;;;;;;;5171335;28;8812;-74
2022/08/14 13:23:32;;;;;;;;;3.50;3.50;;;;;;;;5190794;28;8793;-74
2022/08/14 13:26:03;;;;;;;;;3.50;3.50;;;;;;;;5171861;28;8871;-74
2022/08/14 13:28:37;;;;;;;;;1.25;1.25;;;;;;;;5171289;28;8859;-76
2022/08/14 13:31:12;;;;;;;;;1.25;1.25;;;;;;;;5197356;28;8923;-74
2022/08/14 13:33:43;;;;;;;;;3.00;3.00;;;;;;;;5176360;28;8803;-73
2022/08/14 13:36:33;;;;;;;;;1.75;1.75;;;;;;;;5203563;28;8785;-73
2022/08/14 13:39:05;;;;;;;;;14.75;14.75;;;;;;;;5172564;28;9679;-73
2022/08/14 13:41:37;;;;;;;;;11.75;11.75;;;;;;;;5161876;28;8820;-74
2022/08/14 13:44:09;;;;;;;;;3.00;3.00;;;;;;;;5172861;28;8781;-74
2022/08/14 13:46:40;;;;;;;;;3.00;3.00;;;;;;;;5188969;28;9552;-75
2022/08/14 13:49:12;;;;;;;;;1.25;1.25;;;;;;;;5198281;28;8787;-73
2022/08/14 13:51:46;;;;;;;;;8.75;8.75;;;;;;;;5209293;28;8771;-75
2022/08/14 13:54:19;;;;;;;;;18.50;18.50;;;;;;;;5192504;28;8799;-73
2022/08/14 13:57:12;;;;;;;;;0.75;0.75;;;;;;;;5227177;28;8795;-73
2022/08/14 13:59:45;;;;;;;;;1.50;1.50;;;;;;;;5208826;28;8807;-75
2022/08/14 14:02:17;;;;;;;;;4.25;4.25;;;;;;;;5226885;28;8763;-73
2022/08/14 14:04:48;;;;;;;;;5.25;5.25;;;;;;;;5192988;28;8786;-75
2022/08/14 14:07:20;;;;;;;;;4.00;4.00;;;;;;;;5192519;28;8799;-73
2022/08/14 14:09:53;;;;;;;;;8.00;8.00;;;;;;;;5208637;28;11493;-75
2022/08/14 14:12:24;;;;;;;;;2.00;2.00;;;;;;;;5191370;28;8798;-75
2022/08/14 14:14:55;;;;;;;;;3.00;3.00;;;;;;;;5184413;28;8778;-75
2022/08/14 14:17:29;;;;;;;;;5.75;5.75;;;;;;;;5203685;28;9533;-77
2022/08/14 14:20:01;;;;;;;;;3.00;3.00;;;;;;;;5191789;28;8823;-75
2022/08/14 14:22:32;;;;;;;;;4.00;4.00;;;;;;;;5214741;28;8831;-75
2022/08/14 14:25:03;;;;;;;;;6.50;6.50;;;;;;;;5214178;28;8785;-74
2022/08/14 14:27:36;;;;;;;;;9.50;9.50;;;;;;;;5206121;28;8923;-74
2022/08/14 14:30:07;;;;;;;;;5.00;5.00;;;;;;;;5226140;28;8806;-74
2022/08/14 14:32:40;;;;;;;;;4.00;4.00;;;;;;;;5191785;28;8782;-75
2022/08/14 14:35:16;;;;;;;;;5.00;5.00;;;;;;;;5208181;28;8779;-74
2022/08/14 14:37:47;;;;;;;;;4.25;4.25;;;;;;;;5226954;28;8820;-75
2022/08/14 14:40:18;;;;;;;;;6.25;6.25;;;;;;;;5204466;28;8805;-75
2022/08/14 14:42:50;;;;;;;;;3.00;3.00;;;;;;;;5171592;28;8805;-76
2022/08/14 14:45:42;;;;;;;;;0.00;0.00;;;;;;;;5196093;28;8791;-75
2022/08/14 14:48:13;;;;;;;;;4.00;4.00;;;;;;;;5192352;28;8914;-75
2022/08/14 14:50:45;;;;;;;;;3.00;3.00;;;;;;;;5208208;28;8893;-75
2022/08/14 14:53:16;;;;;;;;;7.50;7.50;;;;;;;;5208306;28;8759;-75
2022/08/14 14:55:47;;;;;;;;;10.00;10.00;;;;;;;;5207959;28;8917;-75
2022/08/14 14:58:18;;;;;;;;;5.50;5.50;;;;;;;;5198191;28;8789;-76
2022/08/14 15:00:53;;;;;;;;;46.00;39.25;;;;;;;;5174476;28;8826;-75
2022/08/14 15:03:24;;;;;;;;;7.00;7.00;;;;;;;;5161430;28;8879;-72
2022/08/14 15:05:56;;;;;;;;;4.00;4.00;;;;;;;;5221652;28;8787;-75
2022/08/14 15:08:29;;;;;;;;;4.25;4.25;;;;;;;;5193255;28;8882;-74
2022/08/14 15:11:18;;;;;;;;;9.75;9.75;;;;;;;;5207243;28;8861;-73
2022/08/14 15:13:49;;;;;;;;;5.75;5.75;;;;;;;;5194556;28;8956;-73
2022/08/14 15:16:20;;;;;;;;;4.00;4.00;;;;;;;;5222124;28;8906;-74
2022/08/14 15:18:51;;;;;;;;;6.50;6.50;;;;;;;;5204615;28;8850;-74
2022/08/14 15:21:23;;;;;;;;;10.00;10.00;;;;;;;;5198359;28;8785;-73
2022/08/14 15:23:54;;;;;;;;;12.25;11.25;;;;;;;;5206116;28;8853;-73
2022/08/14 15:26:26;;;;;;;;;12.50;12.50;;;;;;;;5186860;28;8813;-75
2022/08/14 15:28:57;;;;;;;;;8.00;8.00;;;;;;;;5188184;28;8823;-74
2022/08/14 15:31:28;;;;;;;;;8.75;8.75;;;;;;;;5198086;28;8795;-74
2022/08/14 15:34:18;;;;;;;;;13.50;13.50;;;;;;;;5211889;28;8801;-73
2022/08/14 15:36:49;;;;;;;;;13.00;13.00;;;;;;;;5205229;28;8914;-74
2022/08/14 15:39:21;;;;;;;;;11.50;11.50;;;;;;;;5224074;28;8933;-74
2022/08/14 15:41:52;;;;;;;;;6.75;6.75;;;;;;;;5224546;28;8780;-74
2022/08/14 15:44:23;;;;;;;;;7.00;7.00;;;;;;;;5212923;28;8793;-76
2022/08/14 15:46:54;;;;;;;;;2.50;2.50;;;;;;;;5198960;28;8827;-76
2022/08/14 15:49:28;;;;;;;;;7.25;7.25;;;;;;;;5200061;28;8826;-76
2022/08/14 15:51:59;;;;;;;;;7.50;7.50;;;;;;;;5195842;28;8829;-76